Latest Weather Observations for Yarrawonga

IDN60801

Issued at 7:02 pm EDT Saturday 21 January 2017 (issued every 30 minutes, with the page automatically refreshed every 10 minutes)

About weather observations | Map of weather stations | Latest weather observations for NSW | Other Formats
Station Details ID: 081124 Name: YARRAWONGA Lat: -36.03 Lon: 146.03 Height: 128.9 m
Data from the previous 72 hours. | See also: Recent months at Yarrawonga
Date/Time
EDT
Temp
°C
App
Temp
°C
Dew
Point
°C
Rel
Hum
%
Delta-T
°C
Wind Press
QNH
hPa
Press
MSL
hPa
Rain since
9am
mm
Dir  Spd
km/h
Gust
km/h
Spd
kts
Gust
kts
21/07:00pm 29.7 25.1 5.7 22 12.7 S 19 22 10 12 - 1010.2 -
21/06:30pm 30.3 26.6 8.1 25 12.3 SSW 17 22 9 12 1010.6 1010.0 0.0
21/06:00pm 30.6 27.0 8.3 25 12.4 SSW 17 20 9 11 1010.6 1010.0 0.0
21/05:30pm 30.6 27.6 7.7 24 12.6 SW 13 24 7 13 1010.6 1010.0 0.0
21/05:00pm 30.4 26.6 7.6 24 12.5 S 17 30 9 16 1010.7 1010.1 0.0
21/04:30pm 30.2 26.5 8.0 25 12.2 SSW 17 26 9 14 1010.8 1010.2 0.0
21/04:00pm 29.2 26.6 7.7 26 11.7 SSW 11 22 6 12 1011.0 1010.4 0.0
21/03:30pm 29.4 26.6 8.5 27 11.6 SW 13 28 7 15 1011.2 1010.6 0.0
21/03:00pm 28.5 25.2 8.2 28 11.1 SW 15 28 8 15 1011.5 1010.9 0.0
21/02:30pm 28.4 25.9 9.6 31 10.5 SW 13 26 7 14 1011.6 1011.0 0.0
21/02:00pm 27.3 24.3 9.2 32 10.0 SW 15 24 8 13 1011.8 1011.2 0.0
21/01:30pm 26.7 23.7 9.1 33 9.7 SSW 15 24 8 13 1012.1 1011.5 0.0
21/01:00pm 25.8 23.2 9.2 35 9.1 SW 13 22 7 12 1012.5 1011.9 0.0
21/12:30pm 25.0 22.5 9.7 38 8.4 SSW 13 26 7 14 1012.5 1011.9 0.0
21/12:00pm 23.8 21.3 9.8 41 7.7 SSW 13 24 7 13 1012.6 1012.0 0.0
21/11:30am 23.3 21.4 10.4 44 7.1 SW 11 20 6 11 1012.8 1012.2 0.0
21/11:00am 21.8 19.8 10.0 47 6.4 SSW 11 17 6 9 1012.7 1012.1 0.0
21/10:30am 20.6 19.3 11.2 55 5.2 SSW 9 15 5 8 1012.7 1012.1 0.0
21/10:00am 19.7 17.5 10.7 56 4.9 SSW 13 19 7 10 1012.7 1012.1 0.0
21/09:30am 18.3 15.8 10.9 62 4.0 SSW 15 22 8 12 1012.7 1012.1 0.0
21/09:00am 17.5 15.0 11.1 66 3.5 SSW 15 20 8 11 1012.6 1012.0 1.6
21/08:30am 16.2 12.6 10.7 70 2.9 SSW 20 28 11 15 1012.3 1011.7 1.6
21/08:00am 14.9 11.5 10.7 76 2.2 SSW 19 24 10 13 1012.1 1011.5 1.6
21/07:30am 13.6 11.0 10.6 82 1.6 SW 15 19 8 10 1011.6 1011.0 1.6
21/07:00am 11.9 9.6 10.3 90 0.8 SW 13 17 7 9 1011.3 1010.7 1.6
21/06:30am 11.0 8.9 9.9 93 0.6 SW 11 15 6 8 1010.8 1010.2 1.6
21/06:00am 11.4 8.6 10.0 91 0.7 SW 15 19 8 10 1010.2 1009.6 1.6
21/05:30am 11.7 8.5 10.1 90 0.8 SW 17 20 9 11 1009.8 1009.2 1.6
21/05:00am 11.9 9.1 10.0 88 1.0 SW 15 20 8 11 1009.4 1008.8 1.6
21/04:30am 12.2 9.5 10.3 88 1.0 SW 15 19 8 10 1009.0 1008.4 1.6
21/04:00am 12.2 9.8 9.9 86 1.2 WSW 13 19 7 10 1008.8 1008.2 1.6
21/03:30am 12.5 10.1 10.0 85 1.3 WSW 13 17 7 9 1008.7 1008.1 1.6
21/03:00am 12.7 9.5 9.9 83 1.4 WSW 17 20 9 11 1008.3 1007.6 1.6
21/02:30am 13.1 9.9 10.1 82 1.6 SW 17 22 9 12 1008.1 1007.4 1.6
21/02:00am 13.4 9.8 10.4 82 1.6 SW 20 26 11 14 1007.9 1007.2 1.6
21/01:30am 13.7 9.7 10.3 80 1.8 SW 22 28 12 15 1007.5 1006.8 1.6
21/01:00am 14.1 10.7 10.7 80 1.8 SW 19 24 10 13 1007.3 1006.6 1.6
21/12:30am 14.5 10.6 10.9 79 1.9 SW 22 30 12 16 1007.2 1006.5 1.6
21/12:00am 14.8 9.8 11.0 78 2.0 SW 28 37 15 20 1006.7 1006.1 1.6
 
Date/Time
EDT
Temp
°C
App
Temp
°C
Dew
Point
°C
Rel
Hum
%
Delta-T
°C
Wind Press
QNH
hPa
Press
MSL
hPa
Rain since
9am
mm
Dir  Spd
km/h
Gust
km/h
Spd
kts
Gust
kts
20/11:30pm 15.1 10.5 10.9 76 2.2 WSW 26 35 14 19 1006.5 1005.9 1.6
20/11:00pm 15.6 11.0 11.0 74 2.5 SW 26 35 14 19 1006.1 1005.5 1.6
20/10:30pm 16.0 11.0 11.0 72 2.7 SW 28 35 15 19 1005.7 1005.1 1.6
20/10:00pm 16.7 11.3 11.0 69 3.1 SW 30 43 16 23 1005.3 1004.7 1.6
20/09:30pm 17.4 13.3 11.4 68 3.3 SW 24 37 13 20 1004.9 1004.3 1.6
20/09:00pm 18.0 12.8 11.6 66 3.5 SW 30 41 16 22 1004.0 1003.4 1.6
20/08:30pm 18.8 13.6 11.6 63 4.0 SSW 30 41 16 22 1003.7 1003.1 1.6
20/08:00pm 19.9 14.2 11.9 60 4.5 SSW 33 57 18 31 1003.2 1002.6 1.6
20/07:55pm 20.1 14.6 11.8 59 4.6 SSW 32 57 17 31 1003.1 1002.5 1.6
20/07:30pm 21.0 13.8 11.9 56 5.1 SW 41 57 22 31 1002.8 1002.2 1.6
20/07:00pm 22.1 15.3 12.1 53 5.7 SW 39 59 21 32 1001.9 1001.3 1.6
20/06:59pm 22.2 15.4 11.9 52 5.8 SW 39 59 21 32 1001.9 1001.3 1.6
20/06:30pm 22.6 15.6 12.5 53 5.8 SSW 41 56 22 30 1001.1 1000.4 1.6
20/06:15pm 22.7 17.4 12.6 53 5.8 SSW 32 52 17 28 1000.8 1000.1 1.6
20/06:00pm 23.2 17.5 13.1 53 5.9 SSW 35 54 19 29 1000.8 1000.1 1.6
20/05:30pm 24.1 17.0 13.3 51 6.3 SW 43 56 23 30 1000.1 999.4 1.6
20/05:00pm 25.0 19.4 14.5 52 6.3 SW 37 50 20 27 999.6 998.9 1.6
20/04:41pm 24.8 18.7 14.0 51 6.4 SSW 39 57 21 31 999.3 998.6 1.6
20/04:30pm 24.7 18.5 13.9 51 6.4 SSW 39 56 21 30 999.3 998.6 1.6
20/04:00pm 24.7 18.0 14.5 53 6.1 SSW 43 61 23 33 999.0 998.3 1.6
20/03:57pm 25.1 18.5 14.9 53 6.1 SSW 43 61 23 33 998.9 998.2 1.6
20/03:30pm 25.3 18.6 16.2 57 5.6 SSW 46 57 25 31 998.4 997.8 1.6
20/03:00pm 25.2 20.1 17.7 63 4.7 SW 41 56 22 30 997.9 997.3 1.6
20/02:30pm 25.1 20.8 17.8 64 4.6 SW 37 52 20 28 997.7 997.1 1.6
20/02:00pm 24.5 21.6 18.9 71 3.6 SW 32 43 17 23 997.6 997.0 1.4
20/01:30pm 23.0 20.3 19.6 81 2.2 WSW 33 39 18 21 997.8 997.2 1.4
20/01:00pm 22.1 19.5 19.5 85 1.7 WSW 32 44 17 24 997.6 997.0 1.4
20/12:30pm 22.6 21.0 20.7 89 1.2 WSW 30 37 16 20 997.1 996.5 1.4
20/12:00pm 22.3 22.2 21.5 95 0.5 WSW 24 33 13 18 996.9 996.3 1.4
20/11:30am 22.0 20.6 21.2 95 0.5 W 30 39 16 21 996.8 996.2 1.4
20/11:00am 21.9 22.8 21.9 100 0.0 W 20 32 11 17 996.8 996.2 1.4
20/10:30am 21.4 22.6 21.4 100 0.0 N 17 22 9 12 995.9 995.3 0.0
20/10:00am 20.8 22.1 20.8 100 0.0 N 15 20 8 11 996.3 995.7 0.0
20/09:30am 20.2 20.8 20.2 100 0.0 N 17 22 9 12 996.4 995.8 0.0
20/09:00am 19.9 21.1 19.9 100 0.0 NE 13 20 7 11 996.3 995.7 14.0
20/08:30am 19.5 20.5 19.5 100 0.0 NE 13 20 7 11 996.6 996.0 14.0
20/08:00am 19.3 19.5 19.3 100 0.0 ENE 17 22 9 12 996.8 996.2 13.8
20/07:30am 19.2 21.2 19.2 100 0.0 NE 7 17 4 9 997.8 997.2 13.6
20/07:00am 19.8 20.1 19.5 98 0.2 ENE 17 24 9 13 997.3 996.7 4.6
20/06:30am 19.7 21.0 19.4 98 0.2 E 11 17 6 9 997.0 996.4 4.6
20/06:00am 20.0 23.0 20.0 100 0.0 S 4 6 2 3 997.8 997.2 4.2
20/05:30am 19.6 21.7 19.3 98 0.2 ESE 7 13 4 7 997.6 997.0 4.2
20/05:00am 19.8 22.0 19.5 98 0.2 ESE 7 15 4 8 998.1 997.5 4.0
20/04:30am 19.9 21.5 19.1 95 0.5 SSW 9 15 5 8 999.3 998.6 3.6
20/04:19am 20.1 20.1 18.9 93 0.8 SW 17 24 9 13 999.6 998.9 3.2
20/04:00am 23.5 25.7 19.2 77 2.8 ESE 6 17 3 9 997.5 996.9 1.0
20/03:56am 24.1 26.1 18.7 72 3.4 ENE 6 17 3 9 997.4 996.8 0.8
20/03:30am 26.1 24.2 15.8 53 6.3 ENE 20 28 11 15 995.4 994.8 0.0
20/03:00am 26.4 23.4 12.1 41 8.3 ENE 19 24 10 13 997.0 996.4 0.0
20/02:30am 26.2 23.3 8.2 32 9.7 NE 13 19 7 10 998.1 997.5 0.0
20/02:00am 25.6 24.0 8.6 34 9.3 NE 7 9 4 5 998.6 998.0 0.0
20/01:30am 25.9 25.5 9.7 36 9.0 NNE 2 2 1 1 999.4 998.7 0.0
20/01:00am 26.2 26.1 9.5 35 9.3 CALM 0 4 0 2 999.0 998.3 0.0
20/12:30am 26.2 25.7 12.6 43 7.9 ENE 7 9 4 5 999.3 998.6 0.0
20/12:00am 26.1 25.5 11.8 41 8.3 N 6 7 3 4 999.8 999.1 0.0
 
Date/Time
EDT
Temp
°C
App
Temp
°C
Dew
Point
°C
Rel
Hum
%
Delta-T
°C
Wind Press
QNH
hPa
Press
MSL
hPa
Rain since
9am
mm
Dir  Spd
km/h
Gust
km/h
Spd
kts
Gust
kts
19/11:30pm 26.6 26.2 8.1 31 10.0 CALM 0 4 0 2 1000.8 1000.1 0.0
19/11:00pm 27.1 26.6 8.0 30 10.4 CALM 0 0 0 0 1001.5 1000.8 0.0
19/10:30pm 27.4 26.3 8.3 30 10.4 NNW 4 6 2 3 1002.0 1001.4 0.0
19/10:00pm 28.1 26.2 6.8 26 11.4 NNW 6 7 3 4 1002.1 1001.5 0.0
19/09:30pm 29.2 27.1 4.0 20 12.9 WNW 4 6 2 3 1002.5 1001.9 0.0
19/09:00pm 29.7 27.2 3.6 19 13.4 WNW 6 7 3 4 1002.7 1002.1 0.0
19/08:30pm 30.4 28.2 3.4 18 13.8 NW 4 6 2 3 1002.7 1002.1 0.0
19/08:00pm 31.1 28.5 3.2 17 14.3 WNW 6 7 3 4 1003.0 1002.4 0.0
19/07:30pm 32.8 29.9 2.8 15 15.4 NNW 7 11 4 6 1002.9 1002.3 0.0
19/07:00pm 33.6 30.8 3.4 15 15.8 NW 7 11 4 6 1003.2 1002.6 0.0
19/06:30pm 33.7 30.8 4.4 16 15.5 N 9 11 5 6 1003.5 1002.9 0.0
19/06:00pm 34.1 31.6 4.7 16 15.7 W 7 13 4 7 1003.8 1003.2 0.0
19/05:30pm 33.9 31.5 5.4 17 15.3 N 7 15 4 8 1004.2 1003.6 0.0
19/05:00pm 33.5 30.6 6.7 19 14.7 NNW 11 19 6 10 1005.0 1004.4 0.0
19/04:30pm 33.7 31.9 5.3 17 15.2 ESE 4 9 2 5 1005.5 1004.9 0.0
19/04:00pm 33.6 31.5 6.8 19 14.8 WNW 7 13 4 7 1006.1 1005.5 0.0
19/03:30pm 32.7 30.4 7.5 21 13.9 N 9 20 5 11 1006.6 1006.0 0.0
19/03:00pm 32.0 30.1 7.6 22 13.5 NE 7 13 4 7 1007.1 1006.4 0.0
19/02:30pm 32.1 30.3 9.6 25 12.8 SW 9 20 5 11 1007.7 1007.0 0.0
19/02:00pm 31.1 30.1 10.4 28 11.9 N 6 13 3 7 1008.2 1007.5 0.0
19/01:30pm 30.6 29.6 11.1 30 11.3 NNW 7 13 4 7 1008.6 1008.0 0.0
19/01:00pm 29.5 28.5 11.1 32 10.6 NNE 7 15 4 8 1009.0 1008.4 0.0
19/12:30pm 29.2 28.7 12.6 36 9.8 NNW 7 15 4 8 1009.5 1008.9 0.0
19/12:00pm 28.1 27.9 13.6 41 8.7 NNE 7 17 4 9 1010.0 1009.4 0.0
19/11:30am 26.8 26.4 14.2 46 7.6 N 9 17 5 9 1010.3 1009.7 0.0
19/11:00am 25.7 25.4 14.5 50 6.7 NNW 9 19 5 10 1010.7 1010.1 0.0
19/10:30am 25.0 24.1 14.8 53 6.1 NNE 13 20 7 11 1011.0 1010.4 0.0
19/10:00am 24.1 23.3 15.1 57 5.4 NE 13 20 7 11 1010.9 1010.3 0.0
19/09:30am 22.6 21.2 13.4 56 5.3 ENE 13 19 7 10 1011.3 1010.7 0.0
19/09:00am 21.4 19.2 12.0 55 5.3 ENE 15 20 8 11 1011.3 1010.7 0.0
19/08:30am 19.5 18.6 10.5 56 4.9 SE 6 9 3 5 1011.6 1011.0 0.0
19/08:00am 16.9 16.0 9.3 61 4.0 S 4 6 2 3 1011.8 1011.2 0.0
19/07:30am 13.2 11.7 8.5 73 2.4 SSW 6 7 3 4 1011.5 1010.9 0.0
19/07:00am 11.2 10.0 8.1 81 1.5 SSW 4 6 2 3 1011.2 1010.6 0.0
19/06:30am 9.9 7.9 7.3 84 1.2 WSW 7 9 4 5 1011.2 1010.6 0.0
19/06:00am 10.0 8.0 7.3 83 1.3 WSW 7 9 4 5 1011.1 1010.5 0.0
19/05:30am 9.9 7.9 7.3 84 1.2 WSW 7 9 4 5 1010.7 1010.1 0.0
19/05:00am 9.9 7.5 7.2 83 1.3 WSW 9 11 5 6 1010.7 1010.1 0.0
19/04:30am 10.6 8.9 7.5 81 1.5 WSW 6 7 3 4 1010.5 1009.9 0.0
19/04:00am 10.8 8.5 7.5 80 1.6 WSW 9 11 5 6 1010.2 1009.6 0.0
19/03:30am 11.4 9.2 7.7 78 1.8 WSW 9 11 5 6 1010.3 1009.7 0.0
19/03:00am 11.5 9.2 7.6 77 1.9 WSW 9 11 5 6 1010.5 1009.9 0.0
19/02:30am 11.9 9.7 8.0 77 1.9 WSW 9 11 5 6 1010.7 1010.1 0.0
19/02:00am 12.6 10.5 8.1 74 2.2 WSW 9 11 5 6 1011.0 1010.4 0.0
19/01:30am 12.9 10.7 8.0 72 2.4 SW 9 11 5 6 1011.1 1010.5 0.0
19/01:00am 14.1 12.0 8.3 68 2.9 WSW 9 13 5 7 1011.5 1010.9 0.0
19/12:30am 15.4 12.1 8.2 62 3.6 WSW 15 19 8 10 1011.7 1011.1 0.0
19/12:00am 15.9 12.6 7.9 59 4.0 WSW 15 19 8 10 1011.6 1011.0 0.0
 
Date/Time
EDT
Temp
°C
App
Temp
°C
Dew
Point
°C
Rel
Hum
%
Delta-T
°C
Wind Press
QNH
hPa
Press
MSL
hPa
Rain since
9am
mm
Dir  Spd
km/h
Gust
km/h
Spd
kts
Gust
kts
18/11:30pm 16.6 13.2 7.8 56 4.5 WSW 15 20 8 11 1011.7 1011.1 0.0
18/11:00pm 17.9 14.5 7.6 51 5.2 WSW 15 24 8 13 1011.9 1011.3 0.0
18/10:30pm 18.0 14.2 7.4 50 5.4 SW 17 19 9 10 1011.5 1010.9 0.0
18/10:00pm 18.7 14.5 7.5 48 5.7 SW 19 28 10 15 1011.6 1011.0 0.0
18/09:30pm 19.7 14.9 7.4 45 6.3 SW 22 33 12 18 1011.4 1010.8 0.0
18/09:00pm 20.3 16.2 7.7 44 6.5 SW 19 28 10 15 1011.2 1010.6 0.0
18/08:30pm 21.9 16.9 8.1 41 7.3 SW 24 35 13 19 1010.8 1010.2 0.0
18/08:00pm 23.6 17.7 7.7 36 8.4 SW 28 39 15 21 1010.6 1010.0 0.0
18/07:30pm 25.1 18.7 8.6 35 8.9 SW 32 43 17 23 1010.0 1009.4 0.0

Other Formats:

Comma delimited format used in spreadsheet applications
http://www.bom.gov.au/fwo/IDN60801/IDN60801.94862.axf

JavaScript Object Notation format (JSON) in row-major order
http://www.bom.gov.au/fwo/IDN60801/IDN60801.94862.json